createdAt,value
2017-03-30T18:50:08.408Z,16.70
2017-03-30T18:51:13.704Z,16.60
2017-03-30T18:52:18.304Z,16.60
2017-03-30T18:53:22.907Z,16.60
2017-03-30T18:54:25.107Z,16.50
2017-03-30T18:55:29.493Z,16.50
2017-03-30T18:56:34.010Z,16.50
2017-03-30T18:57:38.736Z,16.40
2017-03-30T18:58:40.763Z,16.40
2017-03-30T18:59:43.347Z,16.40
2017-03-30T19:00:48.543Z,16.30
2017-03-30T19:01:52.871Z,16.30
2017-03-30T19:02:57.499Z,16.20
2017-03-30T19:04:02.335Z,16.20
2017-03-30T19:05:04.411Z,16.20
2017-03-30T19:06:09.459Z,16.10
2017-03-30T19:07:13.925Z,16.10
2017-03-30T19:08:18.599Z,16.10
2017-03-30T19:09:23.023Z,16.10
2017-03-30T19:10:25.383Z,16.10
2017-03-30T19:11:30.593Z,16.00
2017-03-30T19:12:35.695Z,16.00
2017-03-30T19:13:40.276Z,16.00
2017-03-30T19:14:42.215Z,15.90
2017-03-30T19:15:47.284Z,15.80
2017-03-30T19:16:51.836Z,15.80
2017-03-30T19:17:56.640Z,15.70
2017-03-30T19:22:11.479Z,15.60
2017-03-30T19:23:16.970Z,15.60
2017-03-30T19:24:22.026Z,15.50
2017-03-30T19:25:26.462Z,15.50
2017-03-30T19:26:30.886Z,15.50
2017-03-30T19:27:35.592Z,15.40
2017-03-30T19:28:40.337Z,15.40
2017-03-30T19:29:39.163Z,15.40
2017-03-30T19:30:44.414Z,15.40
2017-03-30T19:31:49.247Z,15.40
2017-03-30T19:32:52.376Z,15.40
2017-03-30T19:33:57.517Z,15.30
2017-03-30T19:34:57.290Z,15.30
2017-03-30T19:36:02.306Z,15.30
2017-03-30T19:37:07.898Z,15.40
2017-03-30T19:38:10.835Z,15.30
2017-03-30T19:39:16.164Z,15.20
2017-03-30T19:40:20.000Z,15.20
2017-03-30T19:41:25.382Z,15.20
2017-03-30T19:42:29.447Z,15.20
2017-03-30T19:43:34.256Z,15.20
2017-03-30T19:44:40.067Z,15.10
2017-03-30T19:45:45.378Z,15.10
2017-03-30T19:46:48.191Z,15.10
2017-03-30T19:47:52.848Z,15.10
2017-03-30T19:48:55.950Z,15.00
2017-03-30T19:50:00.682Z,15.00
2017-03-30T19:51:05.332Z,15.00
2017-03-30T19:52:10.307Z,15.00
2017-03-30T19:53:16.031Z,15.00
2017-03-30T19:54:21.119Z,15.00
2017-03-30T19:55:23.306Z,15.00
2017-03-30T19:56:28.242Z,14.90
2017-03-30T19:57:33.010Z,14.90
2017-03-30T19:58:37.642Z,14.90
2017-03-30T19:59:42.100Z,14.80
2017-03-30T20:00:46.807Z,14.90
2017-03-30T20:01:51.352Z,14.80
2017-03-30T20:02:56.079Z,14.80
2017-03-30T20:04:00.689Z,14.70
2017-03-30T20:05:05.280Z,14.70
2017-03-30T20:06:09.969Z,14.80
2017-03-30T20:07:14.411Z,14.70
2017-03-30T20:08:19.160Z,14.70
2017-03-30T20:09:21.291Z,14.60
2017-03-30T20:10:26.439Z,14.60
2017-03-30T20:11:31.013Z,14.60
2017-03-30T20:12:35.527Z,14.50
2017-03-30T20:13:40.249Z,14.50
2017-03-30T20:14:45.333Z,14.50
2017-03-30T20:15:50.515Z,14.50
2017-03-30T20:16:49.570Z,14.50
2017-03-30T20:17:53.915Z,14.40
2017-03-30T20:18:58.283Z,14.50
2017-03-30T20:20:00.632Z,14.50
2017-03-30T20:21:05.382Z,14.50
2017-03-30T20:22:09.907Z,14.40
2017-03-30T20:23:14.340Z,14.40
2017-03-30T20:24:18.775Z,14.40
2017-03-30T20:25:20.931Z,14.30
2017-03-30T20:26:25.847Z,14.30
2017-03-30T20:27:27.779Z,14.30
2017-03-30T20:28:30.491Z,14.30
2017-03-30T20:29:35.346Z,14.20
2017-03-30T20:30:40.132Z,14.20
2017-03-30T20:31:44.480Z,14.20
2017-03-30T20:32:46.551Z,14.20
2017-03-30T20:33:51.667Z,14.20
2017-03-30T20:34:56.163Z,14.20
2017-03-30T20:35:59.259Z,14.10
2017-03-30T20:37:04.273Z,14.00
2017-03-30T20:38:08.819Z,14.00
2017-03-30T20:39:13.287Z,14.00
2017-03-30T20:40:17.824Z,14.00
2017-03-30T20:41:22.424Z,14.00
2017-03-30T20:42:24.439Z,14.00
2017-03-30T20:43:29.519Z,14.00
2017-03-30T20:44:33.914Z,13.90
2017-03-30T20:45:38.538Z,13.90
2017-03-30T20:46:40.558Z,13.90
2017-03-30T20:47:43.154Z,13.90
2017-03-30T20:48:45.782Z,13.90
2017-03-30T20:49:49.183Z,13.80
2017-03-30T20:50:51.795Z,13.80
2017-03-30T20:51:56.775Z,13.80
2017-03-30T20:53:01.259Z,13.80
2017-03-30T20:54:05.704Z,13.80
2017-03-30T20:55:10.282Z,13.80
2017-03-30T20:56:14.818Z,13.80
2017-03-30T20:57:19.339Z,13.80
2017-03-30T20:58:23.867Z,13.70
2017-03-30T20:59:28.398Z,13.70
2017-03-30T21:00:30.691Z,13.70
2017-03-30T21:01:35.719Z,13.70
2017-03-30T21:02:40.327Z,13.70
2017-03-30T21:03:44.835Z,13.60
2017-03-30T21:04:49.247Z,13.60
2017-03-30T21:05:53.951Z,13.50
2017-03-30T21:06:58.467Z,13.50
2017-03-30T21:08:03.059Z,13.40
2017-03-30T21:09:07.710Z,13.40
2017-03-30T21:10:12.211Z,13.40
2017-03-30T21:11:16.735Z,13.40
2017-03-30T21:12:18.791Z,13.40
2017-03-30T21:13:23.067Z,13.40
2017-03-30T21:14:27.570Z,13.40
2017-03-30T21:15:29.879Z,13.40
2017-03-30T21:16:34.168Z,13.30
2017-03-30T21:17:38.823Z,13.30
2017-03-30T21:18:43.490Z,13.30
2017-03-30T21:19:48.188Z,13.30
2017-03-30T21:20:52.759Z,13.30
2017-03-30T21:21:57.327Z,13.30
2017-03-30T21:23:01.739Z,13.20
2017-03-30T21:24:06.255Z,13.20
2017-03-30T21:25:10.855Z,13.20
2017-03-30T21:26:15.527Z,13.20
2017-03-30T21:27:19.960Z,13.20
2017-03-30T21:28:24.719Z,13.10
2017-03-30T21:29:26.860Z,13.10
2017-03-30T21:30:29.457Z,13.10
2017-03-30T21:31:34.394Z,13.10
2017-03-30T21:32:38.955Z,13.10
2017-03-30T21:33:41.163Z,13.10
2017-03-30T21:34:43.798Z,13.10
2017-03-30T21:35:48.624Z,13.00
2017-03-30T21:36:53.211Z,13.00
2017-03-30T21:37:57.651Z,13.00
2017-03-30T21:38:56.411Z,13.00
2017-03-30T21:40:00.932Z,13.00
2017-03-30T21:41:05.475Z,13.00
2017-03-30T21:42:07.627Z,13.00
2017-03-30T21:43:06.483Z,12.90
2017-03-30T21:44:11.331Z,12.90
2017-03-30T21:45:16.023Z,12.90
2017-03-30T21:46:18.203Z,12.90
2017-03-30T21:47:23.283Z,12.90
2017-03-30T21:48:27.715Z,12.90
2017-03-30T21:49:32.303Z,12.80
2017-03-30T21:50:34.555Z,12.80
2017-03-30T21:51:36.928Z,12.80
2017-03-30T21:52:41.991Z,12.80
2017-03-30T21:53:44.015Z,12.70
2017-03-30T21:54:49.121Z,12.80
2017-03-30T21:55:53.622Z,12.70
2017-03-30T21:56:58.051Z,12.70
2017-03-30T21:58:00.156Z,12.70
2017-03-30T21:59:02.614Z,12.70
2017-03-30T22:00:05.640Z,12.70
2017-03-30T22:01:10.459Z,12.70
2017-03-30T22:02:12.592Z,12.70
2017-03-30T22:03:17.491Z,12.70
2017-03-30T22:04:21.907Z,12.70
2017-03-30T22:05:26.523Z,12.70
2017-03-30T22:06:36.799Z,12.60
2017-03-30T22:07:43.407Z,12.60
2017-03-30T22:08:53.707Z,12.60
2017-03-30T22:10:01.594Z,12.50
2017-03-30T22:13:11.338Z,12.50
2017-03-30T22:14:21.590Z,12.50
2017-03-30T22:15:26.404Z,12.40
2017-03-30T22:16:30.974Z,12.40
2017-03-30T22:17:35.587Z,12.40
2017-03-30T22:18:40.110Z,12.40
2017-03-30T22:19:44.595Z,12.40
2017-03-30T22:20:46.848Z,12.40
2017-03-30T22:21:51.912Z,12.40
2017-03-30T22:22:56.430Z,12.40
2017-03-30T22:24:01.047Z,12.40
2017-03-30T22:25:05.690Z,12.30
2017-03-30T22:26:07.775Z,12.30
2017-03-30T22:27:12.669Z,12.30
2017-03-30T22:28:17.380Z,12.30
2017-03-30T22:29:19.622Z,12.30
2017-03-30T22:30:25.150Z,12.30
2017-03-30T22:31:30.374Z,12.20
2017-03-30T22:32:32.295Z,12.20
2017-03-30T22:33:34.927Z,12.20
2017-03-30T22:34:39.972Z,12.20
2017-03-30T22:35:44.475Z,12.20
2017-03-30T22:36:49.144Z,12.10
2017-03-30T22:37:53.779Z,12.10
2017-03-30T22:38:57.011Z,12.10
2017-03-30T22:40:02.175Z,12.10
2017-03-30T22:41:08.327Z,12.00
2017-03-30T22:42:10.941Z,12.00
2017-03-30T22:43:15.791Z,12.10
2017-03-30T22:44:20.203Z,12.00
2017-03-30T22:45:22.631Z,12.00
2017-03-30T22:46:27.294Z,12.00
2017-03-30T22:47:29.261Z,12.00
2017-03-30T22:48:34.163Z,11.90
2017-03-30T22:49:36.207Z,11.90
2017-03-30T22:50:38.811Z,11.90
2017-03-30T22:51:43.767Z,11.90
2017-03-30T22:52:48.178Z,11.90
2017-03-30T22:53:50.318Z,11.90
2017-03-30T22:54:55.223Z,11.90
2017-03-30T22:55:59.887Z,11.80
2017-03-30T22:57:04.516Z,11.80
2017-03-30T22:58:09.155Z,11.80
2017-03-30T22:59:13.558Z,11.80
2017-03-30T23:00:18.112Z,11.80
2017-03-30T23:01:22.698Z,11.70
2017-03-30T23:02:24.878Z,11.70
2017-03-30T23:03:29.960Z,11.70
2017-03-30T23:04:32.111Z,11.70
2017-03-30T23:05:34.708Z,11.60
2017-03-30T23:06:39.620Z,11.60
2017-03-30T23:07:44.032Z,11.70
2017-03-30T23:08:48.618Z,11.70
2017-03-30T23:09:53.123Z,11.70
2017-03-30T23:10:57.667Z,11.70
2017-03-30T23:11:59.695Z,11.60
2017-03-30T23:13:04.643Z,11.60
2017-03-30T23:14:06.659Z,11.50
2017-03-30T23:15:11.604Z,11.50
2017-03-30T23:16:13.726Z,11.50
2017-03-30T23:17:18.691Z,11.50
2017-03-30T23:18:20.907Z,11.50
2017-03-30T23:19:25.206Z,11.50
2017-03-30T23:20:29.843Z,11.50
2017-03-30T23:21:34.565Z,11.40
2017-03-30T23:22:36.598Z,11.40
2017-03-30T23:23:41.747Z,11.40
2017-03-30T23:24:46.238Z,11.40
2017-03-30T23:25:48.318Z,11.40
2017-03-30T23:26:53.472Z,11.40
2017-03-30T23:27:57.907Z,11.30
2017-03-30T23:29:02.407Z,11.30
2017-03-30T23:30:06.871Z,11.30
2017-03-30T23:31:11.538Z,11.30
2017-03-30T23:32:13.747Z,11.30
2017-03-30T23:33:18.823Z,11.30
2017-03-30T23:34:23.326Z,11.30
2017-03-30T23:35:26.491Z,11.30
2017-03-30T23:36:29.067Z,11.30
2017-03-30T23:37:34.046Z,11.20
2017-03-30T23:38:38.811Z,11.20
2017-03-30T23:39:43.325Z,11.20
2017-03-30T23:40:47.915Z,11.20
2017-03-30T23:41:52.635Z,11.20
2017-03-30T23:42:57.327Z,11.20
2017-03-30T23:44:01.979Z,11.20
2017-03-30T23:45:06.539Z,11.10
2017-03-30T23:46:11.160Z,11.20
2017-03-30T23:47:15.923Z,11.10
2017-03-30T23:48:20.399Z,11.10
2017-03-30T23:49:25.096Z,11.10
2017-03-30T23:50:29.683Z,11.10
2017-03-30T23:51:34.331Z,11.10
2017-03-30T23:52:36.527Z,11.10
2017-03-30T23:53:38.987Z,11.10
2017-03-30T23:54:44.122Z,11.10
2017-03-30T23:55:48.555Z,11.10
2017-03-30T23:56:53.090Z,11.10
2017-03-30T23:57:55.209Z,11.00
2017-03-30T23:58:57.367Z,11.00
